Time;durP1;ratioP1;P1;durP2;ratioP2;P2;SDS_P1;SDS_P2;PMS_P1;PMS_P2;Temp;Humidity;BMP_temperature;BMP_pressure;BME280_temperature;BME280_humidity;BME280_pressure;Samples;Min_cycle;Max_cycle;Signal;HPM_P1;HPM_P2
2023/02/01 00:01:20;;;;;;;24.58;10.85;;;5.40;99.90;;;;;;4997638;28;20092;-65
2023/02/01 00:03:46;;;;;;;26.58;10.02;;;5.40;99.90;;;;;;5001273;28;20101;-64
2023/02/01 00:06:12;;;;;;;31.85;11.88;;;5.40;99.90;;;;;;5000617;28;20137;-66
2023/02/01 00:12:01;;;;;;;28.40;10.05;;;5.40;99.90;;;;;;4983385;28;20034;-67
2023/02/01 00:14:27;;;;;;;23.77;10.00;;;5.40;99.90;;;;;;5000697;28;20018;-66
2023/02/01 00:16:53;;;;;;;35.72;8.93;;;5.40;99.90;;;;;;5016515;28;20034;-67
2023/02/01 00:19:18;;;;;;;29.67;10.30;;;5.40;99.90;;;;;;4998639;28;20481;-65
2023/02/01 00:21:45;;;;;;;22.17;9.07;;;5.30;99.90;;;;;;5004641;28;20014;-67
2023/02/01 00:24:11;;;;;;;24.98;11.23;;;5.20;99.90;;;;;;5001897;28;20026;-65
2023/02/01 00:26:38;;;;;;;21.55;8.38;;;5.20;99.90;;;;;;4999248;28;20033;-66
2023/02/01 00:29:06;;;;;;;25.27;8.48;;;5.10;99.90;;;;;;5007134;28;20034;-66
2023/02/01 00:31:32;;;;;;;20.20;8.73;;;5.00;99.90;;;;;;5001191;28;20038;-65
2023/02/01 00:33:57;;;;;;;26.13;9.65;;;5.00;99.90;;;;;;4993769;28;20392;-66
2023/02/01 00:36:23;;;;;;;32.42;8.25;;;5.00;99.90;;;;;;4997219;28;20034;-66
2023/02/01 00:38:49;;;;;;;35.92;9.35;;;5.10;99.90;;;;;;4998602;28;20030;-67
2023/02/01 00:41:20;;;;;;;25.85;8.32;;;5.10;99.90;;;;;;4997606;28;20022;-67
2023/02/01 00:43:46;;;;;;;30.85;9.35;;;5.10;99.90;;;;;;4981062;28;20084;-66
2023/02/01 00:46:13;;;;;;;30.45;9.43;;;5.00;99.90;;;;;;4994994;28;20022;-66
2023/02/01 00:48:39;;;;;;;29.10;9.38;;;5.00;99.90;;;;;;4994567;28;20049;-66
2023/02/01 00:51:08;;;;;;;30.05;10.15;;;5.10;99.90;;;;;;4994387;28;21215;-66
2023/02/01 00:53:34;;;;;;;33.53;9.93;;;5.10;99.90;;;;;;5003532;28;20396;-66
2023/02/01 00:56:00;;;;;;;31.90;10.30;;;5.10;99.90;;;;;;4996812;28;20404;-66
2023/02/01 00:58:26;;;;;;;28.67;8.27;;;5.20;99.90;;;;;;4997242;28;20052;-65
2023/02/01 01:01:02;;;;;;;30.15;8.13;;;5.20;99.90;;;;;;4993120;28;20023;-65
2023/02/01 01:03:29;;;;;;;34.22;9.30;;;5.20;99.90;;;;;;4994872;28;20033;-66
2023/02/01 01:05:57;;;;;;;23.00;7.97;;;5.20;99.90;;;;;;4998768;28;20106;-66
2023/02/01 01:08:22;;;;;;;32.70;8.20;;;5.20;99.90;;;;;;4999497;28;20582;-66
2023/02/01 01:10:49;;;;;;;23.80;7.18;;;5.20;99.90;;;;;;4993494;28;20038;-65
2023/02/01 01:13:15;;;;;;;32.90;9.95;;;5.20;99.90;;;;;;4983182;28;20022;-66
2023/02/01 01:15:41;;;;;;;18.77;8.38;;;5.20;99.90;;;;;;4997169;28;20056;-66
2023/02/01 01:18:08;;;;;;;29.48;8.57;;;5.10;99.90;;;;;;4996679;28;20033;-66
2023/02/01 01:20:39;;;;;;;31.58;8.40;;;5.10;99.90;;;;;;4995117;28;20044;-66
2023/02/01 01:23:07;;;;;;;33.20;8.82;;;5.10;99.90;;;;;;5000749;28;20050;-65
2023/02/01 01:25:38;;;;;;;31.80;8.30;;;5.10;99.90;;;;;;4997633;28;20042;-67
2023/02/01 01:28:03;;;;;;;26.90;8.63;;;5.10;99.90;;;;;;4999480;28;20030;-66
2023/02/01 01:30:29;;;;;;;25.23;6.82;;;5.10;99.90;;;;;;4996313;28;20042;-66
2023/02/01 01:32:55;;;;;;;24.70;6.13;;;5.10;99.90;;;;;;4998667;28;20442;-66
2023/02/01 01:35:20;;;;;;;30.67;6.95;;;5.10;99.90;;;;;;4998856;28;20034;-67
2023/02/01 01:37:46;;;;;;;22.88;6.40;;;5.10;99.90;;;;;;4999553;28;20063;-65
2023/02/01 01:40:12;;;;;;;25.27;7.43;;;5.10;99.90;;;;;;4998001;28;20039;-67
2023/02/01 01:42:42;;;;;;;31.20;6.00;;;5.10;99.90;;;;;;4980650;28;20023;-66
2023/02/01 01:45:22;;;;;;;26.13;5.13;;;5.00;99.90;;;;;;5003551;28;20474;-66
2023/02/01 01:47:58;;;;;;;20.88;4.72;;;5.10;99.90;;;;;;4996124;28;20092;-66
2023/02/01 01:50:29;;;;;;;13.30;4.10;;;5.10;99.90;;;;;;4993570;28;20038;-66
2023/02/01 01:52:58;;;;;;;15.05;4.20;;;5.00;99.90;;;;;;4998007;28;20041;-65
2023/02/01 01:55:27;;;;;;;22.77;4.30;;;5.00;99.90;;;;;;4998887;28;20046;-65
2023/02/01 01:58:00;;;;;;;16.08;5.53;;;4.90;99.90;;;;;;5001842;28;20038;-66
2023/02/01 02:00:26;;;;;;;18.67;3.60;;;4.90;99.90;;;;;;5000783;28;20030;-66
2023/02/01 02:03:03;;;;;;;12.18;4.75;;;4.90;99.90;;;;;;5000159;28;20034;-67
2023/02/01 02:05:29;;;;;;;16.88;3.75;;;4.80;99.90;;;;;;4999480;28;20041;-67
2023/02/01 02:07:59;;;;;;;19.35;4.50;;;4.80;99.90;;;;;;5001038;28;20034;-66
2023/02/01 02:10:59;;;;;;;18.75;4.13;;;4.70;99.90;;;;;;4997638;28;20062;-66
2023/02/01 02:13:12;;;;;;;10.38;3.30;;;4.70;99.90;;;;;;4997309;28;20164;-66
2023/02/01 02:15:43;;;;;;;10.43;3.05;;;4.60;99.90;;;;;;5001524;28;20379;-65
2023/02/01 02:18:27;;;;;;;19.00;3.33;;;4.60;99.90;;;;;;4998044;28;20034;-66
2023/02/01 02:21:14;;;;;;;14.60;2.83;;;4.60;99.90;;;;;;4998398;28;20593;-66
2023/02/01 02:23:56;;;;;;;8.93;2.85;;;4.60;99.90;;;;;;4997305;28;20043;-66
2023/02/01 02:26:34;;;;;;;14.60;2.53;;;4.60;99.90;;;;;;5006856;28;20029;-66
2023/02/01 02:29:23;;;;;;;19.48;3.05;;;4.50;99.90;;;;;;4998496;28;20101;-66
2023/02/01 02:31:58;;;;;;;20.23;2.92;;;4.50;99.90;;;;;;4971458;28;20088;-66
2023/02/01 02:34:29;;;;;;;13.93;3.13;;;4.50;99.90;;;;;;4998254;28;20119;-66
2023/02/01 02:37:23;;;;;;;15.82;3.28;;;4.50;99.90;;;;;;4993521;28;20022;-66
2023/02/01 02:40:08;;;;;;;14.32;3.20;;;4.50;99.90;;;;;;4996322;28;20022;-65
2023/02/01 02:48:55;;;;;;;19.67;3.60;;;4.60;99.90;;;;;;5008046;28;20067;-66
2023/02/01 03:05:25;;;;;;;34.38;7.68;;;4.70;99.90;;;;;;5003550;28;20033;-66
2023/02/01 03:07:56;;;;;;;33.25;7.68;;;4.70;99.90;;;;;;5009099;28;20464;-66
2023/02/01 03:10:38;;;;;;;25.17;5.45;;;4.70;99.90;;;;;;5010369;28;20030;-65
2023/02/01 03:13:17;;;;;;;31.42;7.85;;;4.70;99.90;;;;;;5006117;28;20041;-66
2023/02/01 03:16:28;;;;;;;24.60;7.15;;;4.70;99.90;;;;;;5011328;28;20044;-66
2023/02/01 03:19:00;;;;;;;57.15;16.48;;;4.80;99.90;;;;;;5021102;28;20029;-65
2023/02/01 03:21:37;;;;;;;29.38;9.60;;;4.80;99.90;;;;;;5011317;28;20414;-66
2023/02/01 03:24:11;;;;;;;23.00;8.23;;;4.80;99.90;;;;;;5004545;28;20037;-65
2023/02/01 03:26:41;;;;;;;18.07;6.07;;;4.80;99.90;;;;;;5010290;28;20017;-66
2023/02/01 03:29:13;;;;;;;40.60;9.25;;;4.80;99.90;;;;;;5002093;28;21090;-65
2023/02/01 03:31:39;;;;;;;43.38;9.60;;;4.80;99.90;;;;;;5002548;28;20038;-66
2023/02/01 03:34:05;;;;;;;29.77;7.80;;;4.80;99.90;;;;;;5008974;28;20527;-66
2023/02/01 03:36:40;;;;;;;35.58;8.77;;;4.90;99.90;;;;;;5018721;28;20172;-65
2023/02/01 03:39:16;;;;;;;19.95;7.85;;;4.90;99.90;;;;;;5003979;28;20124;-67
2023/02/01 03:41:51;;;;;;;28.02;6.07;;;4.90;99.90;;;;;;5011118;28;20037;-65
2023/02/01 03:44:29;;;;;;;17.98;5.82;;;4.90;99.90;;;;;;4988734;28;20127;-66
2023/02/01 03:47:25;;;;;;;23.58;6.03;;;4.90;99.90;;;;;;5007676;28;20124;-65
2023/02/01 03:49:59;;;;;;;24.25;7.43;;;4.90;99.90;;;;;;5004278;28;20452;-65
2023/02/01 03:52:30;;;;;;;22.90;7.80;;;4.80;99.90;;;;;;5005081;28;20815;-66
2023/02/01 03:54:57;;;;;;;38.55;7.57;;;4.80;99.90;;;;;;5005130;28;20084;-66
2023/02/01 03:57:29;;;;;;;22.77;7.80;;;4.80;99.90;;;;;;5007539;28;20030;-66
2023/02/01 04:00:09;;;;;;;29.38;7.55;;;4.70;99.90;;;;;;5007416;28;20021;-66
2023/02/01 04:02:35;;;;;;;27.38;9.93;;;4.70;99.90;;;;;;5003640;28;20029;-66
2023/02/01 04:05:01;;;;;;;25.35;6.88;;;4.70;99.90;;;;;;5000764;28;20128;-65
2023/02/01 04:07:26;;;;;;;20.48;5.43;;;4.60;99.90;;;;;;5002127;28;20021;-66
2023/02/01 04:09:52;;;;;;;27.17;5.93;;;4.60;99.90;;;;;;5004474;28;20018;-66
2023/02/01 04:12:17;;;;;;;22.20;5.22;;;4.60;99.90;;;;;;5007198;28;20375;-66
2023/02/01 04:14:43;;;;;;;22.13;5.55;;;4.60;99.90;;;;;;5010184;28;20479;-65
2023/02/01 04:17:08;;;;;;;22.27;5.05;;;4.70;99.90;;;;;;5005271;28;20026;-66
2023/02/01 04:19:34;;;;;;;19.63;5.45;;;4.70;99.90;;;;;;5007699;28;20033;-66
2023/02/01 04:21:59;;;;;;;18.45;5.35;;;4.70;99.90;;;;;;5014294;28;20026;-66
2023/02/01 04:24:25;;;;;;;17.40;5.55;;;4.70;99.90;;;;;;5011034;28;20018;-66
2023/02/01 04:26:50;;;;;;;21.38;5.20;;;4.80;99.90;;;;;;5010203;28;20024;-66
2023/02/01 04:29:16;;;;;;;16.60;5.00;;;4.80;99.90;;;;;;5009361;28;20021;-65
2023/02/01 04:31:41;;;;;;;19.30;4.75;;;4.90;99.90;;;;;;5016052;28;20046;-66
2023/02/01 04:34:07;;;;;;;29.63;5.35;;;4.90;99.90;;;;;;5009432;28;20379;-66
2023/02/01 04:36:33;;;;;;;23.33;4.80;;;4.90;99.90;;;;;;5007408;28;20100;-66
2023/02/01 04:38:58;;;;;;;31.77;6.05;;;4.90;99.90;;;;;;5018220;28;20030;-66
2023/02/01 04:41:24;;;;;;;22.23;4.30;;;4.90;99.90;;;;;;5020230;28;20029;-66
2023/02/01 04:43:51;;;;;;;25.55;4.72;;;4.90;99.90;;;;;;4994967;28;20045;-65
2023/02/01 04:46:17;;;;;;;15.35;3.85;;;5.00;99.90;;;;;;5001996;28;20052;-65
2023/02/01 04:48:42;;;;;;;10.80;3.25;;;4.90;99.90;;;;;;5009873;28;20109;-67
2023/02/01 04:51:10;;;;;;;18.58;4.53;;;4.90;99.90;;;;;;5007301;28;20049;-66
2023/02/01 04:53:35;;;;;;;17.52;4.47;;;4.90;99.90;;;;;;5010399;28;20064;-66
2023/02/01 04:56:01;;;;;;;14.73;4.07;;;4.80;99.90;;;;;;5005492;28;20021;-66
2023/02/01 04:58:27;;;;;;;22.27;4.22;;;4.80;99.90;;;;;;5006991;28;20514;-66
2023/02/01 05:00:52;;;;;;;19.48;4.40;;;4.70;99.90;;;;;;5005307;28;20068;-66
2023/02/01 05:03:18;;;;;;;27.80;5.47;;;4.60;99.90;;;;;;5001431;28;20536;-66
2023/02/01 05:05:44;;;;;;;24.42;4.22;;;4.50;99.90;;;;;;5006915;28;20045;-66
2023/02/01 05:08:10;;;;;;;15.23;4.97;;;4.50;99.90;;;;;;5007273;28;20060;-66
2023/02/01 05:10:35;;;;;;;23.05;4.45;;;4.40;99.90;;;;;;4996107;28;20136;-66
2023/02/01 05:15:45;;;;;;;21.67;6.55;;;4.40;99.90;;;;;;5003378;28;20088;-65
2023/02/01 05:18:12;;;;;;;20.38;4.70;;;4.30;99.90;;;;;;5003502;28;20120;-66
2023/02/01 05:20:37;;;;;;;17.52;4.13;;;4.40;99.90;;;;;;5002526;28;20095;-66
2023/02/01 05:23:03;;;;;;;29.90;5.10;;;4.40;99.90;;;;;;5005134;28;20511;-66
2023/02/01 05:25:29;;;;;;;18.20;5.13;;;4.50;99.90;;;;;;5009469;28;20026;-66
2023/02/01 05:27:54;;;;;;;20.08;5.07;;;4.60;99.90;;;;;;5003581;28;20764;-66
2023/02/01 05:30:20;;;;;;;29.50;5.30;;;4.60;99.90;;;;;;5005792;28;20037;-67
2023/02/01 05:32:48;;;;;;;23.08;4.90;;;4.60;99.90;;;;;;5004412;28;20033;-66
2023/02/01 05:35:14;;;;;;;19.25;4.63;;;4.60;99.90;;;;;;5003946;28;20568;-66
2023/02/01 05:37:39;;;;;;;21.27;3.65;;;4.60;99.90;;;;;;5007542;28;20112;-67
2023/02/01 05:40:06;;;;;;;22.70;7.63;;;4.60;99.90;;;;;;5002700;28;20095;-66
2023/02/01 05:42:31;;;;;;;39.90;11.63;;;4.60;99.90;;;;;;5004729;28;20133;-65
2023/02/01 05:44:57;;;;;;;38.10;10.57;;;4.60;99.90;;;;;;4987639;28;20048;-64
2023/02/01 05:47:22;;;;;;;50.97;13.93;;;4.60;99.90;;;;;;4999513;28;20058;-66
2023/02/01 05:49:48;;;;;;;44.60;15.95;;;4.50;99.90;;;;;;5004743;28;20014;-66
2023/02/01 05:52:18;;;;;;;51.20;19.25;;;4.40;99.90;;;;;;5007326;28;20045;-65
2023/02/01 05:54:45;;;;;;;82.20;24.63;;;4.40;99.90;;;;;;5004048;28;20033;-66
2023/02/01 05:57:12;;;;;;;52.72;18.08;;;4.40;99.90;;;;;;5005308;28;20504;-66
2023/02/01 05:59:40;;;;;;;44.00;14.68;;;4.40;99.90;;;;;;5007622;28;20029;-66
2023/02/01 06:02:07;;;;;;;27.67;6.20;;;4.30;99.90;;;;;;5004422;28;20030;-66
2023/02/01 06:04:32;;;;;;;20.90;7.20;;;4.40;99.90;;;;;;5011850;28;20030;-65
2023/02/01 06:06:58;;;;;;;23.92;5.93;;;4.40;99.90;;;;;;4999731;28;20026;-66
2023/02/01 06:09:23;;;;;;;22.20;4.97;;;4.50;99.90;;;;;;5006607;28;20029;-66
2023/02/01 06:11:49;;;;;;;23.17;4.90;;;4.50;99.90;;;;;;5004273;28;20026;-67
2023/02/01 06:14:14;;;;;;;19.67;4.45;;;4.50;99.90;;;;;;5007201;28;20037;-65
2023/02/01 06:16:40;;;;;;;23.77;4.35;;;4.50;99.90;;;;;;5005278;28;20030;-66
2023/02/01 06:19:06;;;;;;;23.92;4.28;;;4.50;99.90;;;;;;5006315;28;20034;-64
2023/02/01 06:21:31;;;;;;;21.75;4.32;;;4.50;99.90;;;;;;5015957;28;20113;-65
2023/02/01 06:23:58;;;;;;;24.63;4.72;;;4.40;99.90;;;;;;5018302;28;20018;-67
2023/02/01 06:26:23;;;;;;;24.40;5.88;;;4.40;99.90;;;;;;5016871;28;20057;-66
2023/02/01 06:28:49;;;;;;;20.52;6.50;;;4.40;99.90;;;;;;5011691;28;20049;-67
2023/02/01 06:31:15;;;;;;;22.08;4.57;;;4.30;99.90;;;;;;5030136;28;20491;-66
2023/02/01 06:33:41;;;;;;;14.48;4.35;;;4.30;99.90;;;;;;5013376;28;20034;-64
2023/02/01 06:36:09;;;;;;;33.05;7.05;;;4.30;99.90;;;;;;5012396;28;20057;-65
2023/02/01 06:38:36;;;;;;;19.33;3.45;;;4.30;99.90;;;;;;5010309;28;20025;-64
2023/02/01 06:41:03;;;;;;;16.95;4.82;;;4.30;99.90;;;;;;5006738;28;20030;-67
2023/02/01 06:43:28;;;;;;;31.85;6.35;;;4.30;99.90;;;;;;4992724;28;20021;-65
2023/02/01 06:46:03;;;;;;;22.02;4.35;;;4.30;99.90;;;;;;5011976;28;20088;-66
2023/02/01 06:48:29;;;;;;;22.20;3.22;;;4.40;99.90;;;;;;5010933;28;20377;-65
2023/02/01 06:50:54;;;;;;;13.77;3.72;;;4.40;99.90;;;;;;5006120;28;20029;-64
2023/02/01 06:53:20;;;;;;;16.17;3.47;;;4.40;99.90;;;;;;5007541;28;20035;-64
2023/02/01 06:55:57;;;;;;;21.08;5.18;;;4.40;99.90;;;;;;5008921;28;20025;-65
2023/02/01 06:58:23;;;;;;;21.40;4.35;;;4.50;99.90;;;;;;5012082;28;20030;-65
2023/02/01 07:00:50;;;;;;;23.38;4.15;;;4.50;99.90;;;;;;5009807;28;20381;-65
2023/02/01 07:03:16;;;;;;;13.80;4.18;;;4.50;99.90;;;;;;5007131;28;20558;-64
2023/02/01 07:05:41;;;;;;;20.35;3.47;;;4.60;99.90;;;;;;5004847;28;20499;-65
2023/02/01 07:08:07;;;;;;;16.65;2.88;;;4.60;99.90;;;;;;5011673;28;20054;-65
2023/02/01 07:10:34;;;;;;;21.17;3.97;;;4.60;99.90;;;;;;5018943;28;20073;-65
2023/02/01 07:13:00;;;;;;;20.30;3.97;;;4.60;99.90;;;;;;5004908;28;20112;-66
2023/02/01 07:15:25;;;;;;;27.83;4.43;;;4.60;99.90;;;;;;5006474;28;20479;-65
2023/02/01 07:17:53;;;;;;;17.88;4.80;;;4.60;99.90;;;;;;5010379;28;20034;-65
2023/02/01 07:20:19;;;;;;;16.95;3.58;;;4.70;99.90;;;;;;5007387;28;20041;-65
2023/02/01 07:22:44;;;;;;;18.23;3.72;;;4.70;99.90;;;;;;4988134;28;20042;-66
2023/02/01 07:25:10;;;;;;;17.98;3.63;;;4.70;99.90;;;;;;5005501;28;20040;-65
2023/02/01 07:27:36;;;;;;;26.70;4.97;;;4.70;99.90;;;;;;5013138;28;20484;-65
2023/02/01 07:30:03;;;;;;;15.48;4.15;;;4.80;99.90;;;;;;5012928;28;20018;-65
2023/02/01 07:32:29;;;;;;;34.85;7.22;;;4.70;99.90;;;;;;5005089;28;20076;-64
2023/02/01 07:34:55;;;;;;;28.60;4.68;;;4.70;99.90;;;;;;5007256;28;20116;-67
2023/02/01 07:37:21;;;;;;;20.83;3.90;;;4.80;99.90;;;;;;5010161;28;20068;-67
2023/02/01 07:39:47;;;;;;;17.63;3.70;;;4.80;99.90;;;;;;5003815;28;20054;-67
2023/02/01 07:42:12;;;;;;;19.38;3.22;;;4.90;99.90;;;;;;5004372;28;20022;-66
2023/02/01 07:44:38;;;;;;;13.20;3.90;;;4.90;99.90;;;;;;4987150;28;20038;-66
2023/02/01 07:47:03;;;;;;;23.70;3.88;;;4.90;99.90;;;;;;5009187;28;20026;-65
2023/02/01 07:49:29;;;;;;;22.13;6.10;;;4.90;99.90;;;;;;5008074;28;20020;-64
2023/02/01 07:51:55;;;;;;;25.00;3.88;;;4.90;99.90;;;;;;5015357;28;20059;-64
2023/02/01 07:54:20;;;;;;;20.77;3.30;;;4.90;99.90;;;;;;5006334;28;20049;-65
2023/02/01 07:56:46;;;;;;;18.92;4.53;;;5.00;99.90;;;;;;5005306;28;20045;-65
2023/02/01 07:59:12;;;;;;;19.95;4.70;;;5.00;99.90;;;;;;5009593;28;20030;-65
2023/02/01 08:01:37;;;;;;;20.42;3.95;;;5.00;99.90;;;;;;5006521;28;20034;-65
2023/02/01 08:04:03;;;;;;;14.93;3.22;;;5.00;99.90;;;;;;5010129;28;20030;-64
2023/02/01 08:06:33;;;;;;;17.40;3.60;;;5.00;99.90;;;;;;5009119;28;20026;-65
2023/02/01 08:08:59;;;;;;;25.00;4.55;;;5.10;99.90;;;;;;5006984;28;20502;-64
2023/02/01 08:11:25;;;;;;;24.55;4.25;;;5.10;99.90;;;;;;5005926;28;20026;-64
2023/02/01 08:13:51;;;;;;;25.48;4.38;;;5.10;99.90;;;;;;5009430;28;20022;-65
2023/02/01 08:16:18;;;;;;;29.25;4.50;;;5.20;99.90;;;;;;5006700;28;20038;-63
2023/02/01 08:18:44;;;;;;;20.75;3.38;;;5.20;99.90;;;;;;5011267;28;20025;-65
2023/02/01 08:21:22;;;;;;;21.50;4.38;;;5.10;99.90;;;;;;5012549;28;20029;-64
2023/02/01 08:23:48;;;;;;;22.35;3.22;;;5.10;99.90;;;;;;5002638;28;20019;-65
2023/02/01 08:26:23;;;;;;;17.98;3.60;;;5.10;99.90;;;;;;5006296;28;20128;-63
2023/02/01 08:28:57;;;;;;;19.23;3.63;;;5.10;99.90;;;;;;5009262;28;20503;-64
2023/02/01 08:31:24;;;;;;;18.73;3.22;;;5.10;99.90;;;;;;5012921;28;20084;-66
2023/02/01 08:33:53;;;;;;;20.17;4.53;;;5.10;99.90;;;;;;5007167;28;20033;-64
2023/02/01 08:36:19;;;;;;;21.63;3.63;;;5.00;99.90;;;;;;5009105;28;20041;-65
2023/02/01 08:38:45;;;;;;;18.20;3.65;;;5.00;99.90;;;;;;5012769;28;20030;-64
2023/02/01 08:41:13;;;;;;;25.48;4.55;;;5.10;99.90;;;;;;5007016;28;20030;-65
2023/02/01 08:43:39;;;;;;;11.45;4.78;;;5.10;99.90;;;;;;4987305;28;20539;-64
2023/02/01 08:46:06;;;;;;;22.33;3.75;;;5.10;99.90;;;;;;5004212;28;20038;-64
2023/02/01 08:48:32;;;;;;;25.55;5.97;;;5.10;99.90;;;;;;5010533;28;20125;-65
2023/02/01 08:51:00;;;;;;;28.90;4.57;;;5.10;99.90;;;;;;4999095;28;20681;-65
2023/02/01 08:53:26;;;;;;;28.08;5.35;;;5.10;99.90;;;;;;5008164;28;20073;-64
2023/02/01 08:55:51;;;;;;;18.10;4.38;;;5.10;99.90;;;;;;5000396;28;20061;-64
2023/02/01 08:58:17;;;;;;;25.95;5.03;;;5.20;99.90;;;;;;5001842;28;20153;-63
2023/02/01 09:00:44;;;;;;;39.60;6.40;;;5.20;99.90;;;;;;5002808;28;20030;-65
2023/02/01 09:03:11;;;;;;;17.92;4.70;;;5.20;99.90;;;;;;5002130;28;20029;-64
2023/02/01 09:05:36;;;;;;;36.22;4.20;;;5.20;99.90;;;;;;5008530;28;20038;-64
2023/02/01 09:08:02;;;;;;;15.30;3.85;;;5.30;99.90;;;;;;5007960;28;20037;-65
2023/02/01 09:10:28;;;;;;;23.75;4.10;;;5.30;99.90;;;;;;5003904;28;20052;-64
2023/02/01 09:12:53;;;;;;;16.63;2.97;;;5.40;99.90;;;;;;5006143;28;20029;-64
2023/02/01 09:15:19;;;;;;;23.73;5.20;;;5.50;99.90;;;;;;5014675;28;20041;-64
2023/02/01 09:17:45;;;;;;;25.55;5.65;;;5.60;99.90;;;;;;5012312;28;20037;-64
2023/02/01 09:20:11;;;;;;;18.27;3.45;;;5.60;99.90;;;;;;5007606;28;20040;-65
2023/02/01 09:22:37;;;;;;;21.17;5.20;;;5.70;99.90;;;;;;5006777;28;20030;-65
2023/02/01 09:25:02;;;;;;;22.98;4.88;;;5.70;99.90;;;;;;5003098;28;20511;-65
2023/02/01 09:27:28;;;;;;;17.52;4.45;;;5.70;99.90;;;;;;5008161;28;20040;-64
2023/02/01 09:29:53;;;;;;;27.75;4.72;;;5.70;99.90;;;;;;5006468;28;20061;-64
2023/02/01 09:32:23;;;;;;;29.35;5.45;;;5.80;99.90;;;;;;5006999;28;20033;-64
2023/02/01 09:34:52;;;;;;;26.42;4.60;;;5.80;99.90;;;;;;5004813;28;20030;-65
2023/02/01 09:37:19;;;;;;;18.27;4.85;;;5.80;99.90;;;;;;5006878;28;20033;-65
2023/02/01 09:39:44;;;;;;;24.73;5.72;;;5.90;99.90;;;;;;5006131;28;20037;-66
2023/02/01 09:42:27;;;;;;;18.80;5.40;;;5.80;99.90;;;;;;5001074;28;20056;-65
2023/02/01 09:44:56;;;;;;;25.75;5.13;;;5.70;99.90;;;;;;4988148;28;20128;-65
2023/02/01 09:47:23;;;;;;;17.23;4.00;;;5.70;99.90;;;;;;5006157;28;20041;-65
2023/02/01 09:50:04;;;;;;;38.55;8.10;;;5.70;99.90;;;;;;5002842;28;20424;-65
2023/02/01 09:52:36;;;;;;;23.38;5.03;;;5.70;99.90;;;;;;5000220;28;20530;-65
2023/02/01 09:55:16;;;;;;;24.10;3.83;;;5.70;99.90;;;;;;5006904;28;20038;-65
2023/02/01 09:57:58;;;;;;;17.70;3.53;;;5.80;99.90;;;;;;5003466;28;20022;-65
2023/02/01 10:00:28;;;;;;;19.63;3.40;;;5.80;99.90;;;;;;5008420;28;20136;-65
2023/02/01 10:02:55;;;;;;;11.43;3.38;;;5.80;99.90;;;;;;4998426;28;20037;-65
2023/02/01 10:05:33;;;;;;;17.35;4.03;;;5.90;99.90;;;;;;4998861;28;20502;-65
2023/02/01 10:08:10;;;;;;;14.32;3.40;;;5.90;99.90;;;;;;5001336;28;20026;-65
2023/02/01 10:10:48;;;;;;;16.00;4.10;;;5.90;99.90;;;;;;4996963;28;20636;-65
2023/02/01 10:13:32;;;;;;;27.30;4.75;;;5.90;99.90;;;;;;4998940;28;20044;-66
2023/02/01 10:16:18;;;;;;;17.83;3.55;;;6.00;99.90;;;;;;5001500;28;20514;-64
2023/02/01 10:18:46;;;;;;;15.45;3.35;;;5.90;99.90;;;;;;5003636;28;20179;-65
2023/02/01 10:21:22;;;;;;;22.92;3.83;;;5.90;99.90;;;;;;5007388;28;20041;-65
2023/02/01 10:23:56;;;;;;;19.50;3.67;;;5.90;99.90;;;;;;5006476;28;20148;-66
2023/02/01 10:26:24;;;;;;;12.80;3.13;;;6.00;99.90;;;;;;5008170;28;20034;-66
2023/02/01 10:28:52;;;;;;;20.17;2.97;;;6.00;99.90;;;;;;5001567;28;20083;-65
2023/02/01 10:31:20;;;;;;;21.83;4.03;;;6.00;99.90;;;;;;5004779;28;20037;-65
2023/02/01 10:33:55;;;;;;;21.48;4.30;;;6.20;99.90;;;;;;5004934;28;20113;-65
2023/02/01 10:36:41;;;;;;;16.10;3.25;;;6.30;99.90;;;;;;5003916;28;20038;-65
2023/02/01 10:39:13;;;;;;;13.70;3.25;;;6.40;99.90;;;;;;4996366;28;20041;-65
2023/02/01 10:41:40;;;;;;;15.75;3.33;;;6.50;99.90;;;;;;4992100;28;20029;-65
2023/02/01 10:44:12;;;;;;;14.50;2.72;;;6.60;99.90;;;;;;4984266;28;20559;-65
2023/02/01 10:46:38;;;;;;;19.88;3.95;;;6.60;99.90;;;;;;4990585;28;20030;-64
2023/02/01 10:49:06;;;;;;;23.17;3.78;;;6.70;99.90;;;;;;4991107;28;21646;-65
2023/02/01 10:52:10;;;;;;;20.15;6.45;;;6.80;99.90;;;;;;5003597;28;20042;-65
2023/02/01 10:54:40;;;;;;;12.20;3.22;;;7.00;99.90;;;;;;4959883;28;20509;-64
2023/02/01 10:57:10;;;;;;;21.92;3.53;;;7.00;99.90;;;;;;4991338;28;20034;-66
2023/02/01 10:59:37;;;;;;;21.17;3.45;;;7.10;99.90;;;;;;5001128;28;20033;-66
2023/02/01 11:02:34;;;;;;;11.95;3.20;;;7.10;99.90;;;;;;5001266;28;20123;-65
2023/02/01 11:05:09;;;;;;;17.02;3.38;;;7.30;99.90;;;;;;4994862;28;20480;-65
2023/02/01 11:07:36;;;;;;;21.58;3.92;;;7.50;99.90;;;;;;5003377;28;20030;-64
2023/02/01 11:10:03;;;;;;;15.10;3.42;;;7.40;99.90;;;;;;5000605;28;20484;-65
2023/02/01 11:12:35;;;;;;;13.80;2.78;;;7.50;99.90;;;;;;5003733;28;20040;-65
2023/02/01 11:15:21;;;;;;;14.55;3.83;;;7.50;99.90;;;;;;5009382;28;20032;-66
2023/02/01 11:17:56;;;;;;;13.98;3.03;;;7.50;99.90;;;;;;5001403;28;20096;-65
2023/02/01 11:20:39;;;;;;;13.77;3.40;;;7.40;99.90;;;;;;5004878;28;20044;-65
2023/02/01 11:23:05;;;;;;;21.17;3.03;;;7.40;99.90;;;;;;5003723;28;20083;-65
2023/02/01 11:25:35;;;;;;;17.85;4.05;;;7.10;99.90;;;;;;5008111;28;20435;-64
2023/02/01 11:28:01;;;;;;;16.02;3.80;;;7.00;99.90;;;;;;5001441;28;20030;-64
2023/02/01 11:30:37;;;;;;;18.77;2.67;;;6.90;99.90;;;;;;5005792;28;20397;-65
2023/02/01 11:33:05;;;;;;;12.88;3.00;;;6.80;99.90;;;;;;5005425;28;20042;-65
2023/02/01 11:35:31;;;;;;;20.67;3.72;;;6.80;99.90;;;;;;5003186;28;20026;-65
2023/02/01 11:38:01;;;;;;;14.95;3.50;;;6.80;99.90;;;;;;5007955;28;20377;-64
2023/02/01 11:40:35;;;;;;;17.85;3.00;;;6.70;99.90;;;;;;5000923;28;20030;-65
2023/02/01 11:43:07;;;;;;;20.45;2.58;;;6.70;99.90;;;;;;5007770;28;20056;-65
2023/02/01 11:45:34;;;;;;;20.23;4.30;;;6.80;99.90;;;;;;4988760;28;20104;-65
2023/02/01 11:48:01;;;;;;;12.25;3.40;;;6.80;99.90;;;;;;5001848;28;20065;-65
2023/02/01 11:50:29;;;;;;;22.10;3.33;;;6.80;99.90;;;;;;5014221;28;20543;-66
2023/02/01 11:53:14;;;;;;;11.20;3.22;;;6.90;99.90;;;;;;5008394;28;20064;-66
2023/02/01 11:56:00;;;;;;;12.80;3.25;;;6.90;99.90;;;;;;5001849;28;20025;-64
2023/02/01 11:59:03;;;;;;;12.93;3.25;;;6.90;99.90;;;;;;5005347;28;20578;-65
2023/02/01 12:01:56;;;;;;;18.73;3.53;;;6.90;99.90;;;;;;4998113;28;20045;-65
2023/02/01 12:04:57;;;;;;;23.60;5.55;;;6.80;99.90;;;;;;5001362;28;20030;-65
2023/02/01 12:07:55;;;;;;;14.85;3.15;;;6.90;99.90;;;;;;5006890;28;20032;-65
2023/02/01 12:10:44;;;;;;;17.73;2.97;;;6.80;99.90;;;;;;5012406;28;20032;-64
2023/02/01 12:13:44;;;;;;;25.67;4.93;;;6.80;99.90;;;;;;5002121;28;20026;-64
2023/02/01 12:16:27;;;;;;;17.80;4.75;;;6.80;99.90;;;;;;5010595;28;20121;-65
2023/02/01 12:19:18;;;;;;;18.98;3.83;;;6.70;99.90;;;;;;5005205;28;20111;-65
2023/02/01 12:21:59;;;;;;;11.30;3.10;;;6.90;99.90;;;;;;5006351;28;20053;-66
2023/02/01 12:25:19;;;;;;;8.57;2.03;;;6.90;99.90;;;;;;4999882;28;20424;-65
2023/02/01 12:28:09;;;;;;;18.33;2.78;;;7.10;99.90;;;;;;5003175;28;20785;-67
2023/02/01 12:30:50;;;;;;;9.73;2.38;;;7.10;99.90;;;;;;5001705;28;20053;-65
2023/02/01 12:33:21;;;;;;;13.70;3.03;;;6.90;99.90;;;;;;4999879;28;20388;-66
2023/02/01 12:36:12;;;;;;;12.35;2.53;;;6.80;99.90;;;;;;5004267;28;20079;-65
2023/02/01 12:38:53;;;;;;;14.77;3.10;;;6.80;99.90;;;;;;5006126;28;20416;-66
2023/02/01 12:41:28;;;;;;;9.48;2.85;;;6.80;99.90;;;;;;5003827;28;20037;-64
2023/02/01 12:44:27;;;;;;;25.63;4.53;;;6.70;99.90;;;;;;5000277;28;20026;-64
2023/02/01 12:47:03;;;;;;;6.55;2.70;;;6.80;99.90;;;;;;4998499;28;20084;-65
2023/02/01 12:49:34;;;;;;;18.67;3.22;;;6.80;99.90;;;;;;5006074;28;20033;-65
2023/02/01 12:52:05;;;;;;;8.48;2.55;;;6.80;99.90;;;;;;4997549;28;20049;-66
2023/02/01 12:54:42;;;;;;;11.00;2.55;;;6.80;99.90;;;;;;5000549;28;20109;-66
2023/02/01 12:57:21;;;;;;;10.38;2.13;;;6.90;99.90;;;;;;5005676;28;20057;-66
2023/02/01 12:59:52;;;;;;;23.42;3.67;;;6.90;99.90;;;;;;4997896;28;20045;-65
2023/02/01 13:02:54;;;;;;;24.70;5.40;;;6.80;99.90;;;;;;5008973;28;20034;-64
2023/02/01 13:05:21;;;;;;;22.42;3.67;;;6.80;99.90;;;;;;5004642;28;20030;-70
2023/02/01 13:08:10;;;;;;;17.95;4.05;;;6.80;99.90;;;;;;5003579;28;20026;-64
2023/02/01 13:10:41;;;;;;;12.43;2.30;;;6.80;99.90;;;;;;5001402;28;20125;-65
2023/02/01 13:13:18;;;;;;;14.80;2.80;;;6.70;99.90;;;;;;5004119;28;20061;-65
2023/02/01 13:15:55;;;;;;;21.65;5.20;;;6.80;99.90;;;;;;5008117;28;20042;-65
2023/02/01 13:18:35;;;;;;;23.33;3.40;;;6.70;99.90;;;;;;5006227;28;20117;-66
2023/02/01 13:21:24;;;;;;;9.90;2.08;;;6.70;99.90;;;;;;5001340;28;20029;-65
2023/02/01 13:23:52;;;;;;;19.27;2.88;;;6.70;99.90;;;;;;5005064;28;20033;-65
2023/02/01 13:26:17;;;;;;;18.23;3.13;;;6.70;99.90;;;;;;5006406;28;20044;-64
2023/02/01 13:28:48;;;;;;;11.10;2.67;;;6.70;99.90;;;;;;5008742;28;20057;-66
2023/02/01 13:31:45;;;;;;;10.70;2.80;;;6.70;99.90;;;;;;5005696;28;20026;-65